Time;durP1;ratioP1;P1;durP2;ratioP2;P2;SDS_P1;SDS_P2;PMS_P1;PMS_P2;Temp;Humidity;BMP_temperature;BMP_pressure;BME280_temperature;BME280_humidity;BME280_pressure;Samples;Min_cycle;Max_cycle;Signal;HPM_P1;HPM_P2
2021/10/12 00:00:59;;;;;;;;;6.75;6.75;;;;;18.24;100.00;102298.72;5036931;28;45429;-81
2021/10/12 00:03:24;;;;;;;;;11.00;5.75;;;;;18.22;100.00;102299.78;5027748;28;45460;-81
2021/10/12 00:05:50;;;;;;;;;8.00;6.50;;;;;18.17;100.00;102285.94;5029960;28;45450;-81
2021/10/12 00:08:15;;;;;;;;;6.25;5.00;;;;;18.25;100.00;102288.88;5027970;28;46129;-81
2021/10/12 00:10:41;;;;;;;;;6.75;5.50;;;;;18.31;100.00;102299.09;5036226;28;45362;-79
2021/10/12 00:13:06;;;;;;;;;7.75;5.00;;;;;18.34;100.00;102296.19;5031851;28;45699;-79
2021/10/12 00:15:32;;;;;;;;;8.25;5.00;;;;;18.27;100.00;102295.81;5028603;28;45505;-78
2021/10/12 00:17:57;;;;;;;;;5.50;4.75;;;;;18.29;100.00;102295.72;5030500;28;45855;-79
2021/10/12 00:20:22;;;;;;;;;8.75;4.25;;;;;18.25;100.00;102291.53;5032417;28;45347;-79
2021/10/12 00:22:48;;;;;;;;;6.75;6.00;;;;;18.29;100.00;102296.56;5029670;28;45494;-79
2021/10/12 00:25:13;;;;;;;;;5.50;5.50;;;;;18.25;100.00;102283.53;5033292;28;45656;-79
2021/10/12 00:27:38;;;;;;;;;6.00;4.25;;;;;18.27;100.00;102298.50;5026598;28;45551;-79
2021/10/12 00:30:06;;;;;;;;;9.25;6.25;;;;;18.29;100.00;102301.06;5050861;28;45666;-80
2021/10/12 00:32:32;;;;;;;;;10.25;5.25;;;;;18.24;100.00;102289.84;5027057;28;45600;-80
2021/10/12 00:34:58;;;;;;;;;7.75;5.00;;;;;18.27;100.00;102284.28;5027158;28;45535;-80
2021/10/12 00:37:23;;;;;;;;;5.50;5.00;;;;;18.26;100.00;102285.22;5025173;28;46526;-81
2021/10/12 00:39:48;;;;;;;;;7.75;6.00;;;;;18.19;100.00;102295.53;5030906;27;45359;-80
2021/10/12 00:42:14;;;;;;;;;5.75;5.00;;;;;18.16;100.00;102289.56;5029626;28;45435;-80
2021/10/12 00:44:39;;;;;;;;;9.00;5.75;;;;;18.21;100.00;102287.38;5036666;28;46051;-80
2021/10/12 00:47:05;;;;;;;;;7.00;5.00;;;;;18.23;100.00;102285.44;5030868;28;46414;-80
2021/10/12 00:49:30;;;;;;;;;9.00;4.25;;;;;18.24;100.00;102277.31;5035323;28;45404;-80
2021/10/12 00:51:55;;;;;;;;;5.75;4.00;;;;;18.29;100.00;102274.31;5032330;28;45247;-80
2021/10/12 00:54:21;;;;;;;;;6.75;5.00;;;;;18.10;100.00;102260.63;5033704;28;45580;-80
2021/10/12 00:56:47;;;;;;;;;8.00;5.75;;;;;18.25;100.00;102264.81;5034132;28;46552;-80
2021/10/12 00:59:13;;;;;;;;;5.00;5.00;;;;;18.26;100.00;102266.50;5022911;28;45638;-80
2021/10/12 01:01:39;;;;;;;;;7.00;4.00;;;;;18.27;100.00;102268.22;5019732;28;45285;-80
2021/10/12 01:04:06;;;;;;;;;6.25;4.50;;;;;18.16;100.00;102262.81;5025426;28;45533;-80
2021/10/12 01:06:31;;;;;;;;;5.00;5.00;;;;;18.10;100.00;102260.63;5035619;28;46415;-80
2021/10/12 01:08:57;;;;;;;;;9.75;5.00;;;;;18.01;100.00;102255.97;5038473;28;45317;-80
2021/10/12 01:11:22;;;;;;;;;7.00;4.75;;;;;18.02;100.00;102250.50;5034241;28;45592;-80
2021/10/12 01:13:48;;;;;;;;;8.00;5.25;;;;;18.03;100.00;102256.72;5031670;28;45426;-80
2021/10/12 01:16:17;;;;;;;;;10.00;5.00;;;;;17.99;100.00;102242.72;5025682;28;45409;-80
2021/10/12 01:19:18;;;;;;;;;11.75;5.00;;;;;18.07;100.00;102242.13;5031003;28;45490;-80
2021/10/12 01:21:48;;;;;;;;;7.25;4.50;;;;;17.96;100.00;102245.59;5066905;27;45552;-80
2021/10/12 01:24:15;;;;;;;;;6.75;6.75;;;;;17.94;100.00;102239.50;5043493;28;45579;-81
2021/10/12 01:26:43;;;;;;;;;7.00;5.00;;;;;17.80;100.00;102245.03;5034995;28;45386;-81
2021/10/12 01:29:11;;;;;;;;;5.50;4.00;;;;;17.83;100.00;102235.00;5035773;28;45541;-81
2021/10/12 01:31:38;;;;;;;;;4.75;3.00;;;;;17.90;100.00;102232.72;5028709;28;45263;-81
2021/10/12 01:34:30;;;;;;;;;11.75;4.50;;;;;17.97;100.00;102227.75;5034011;28;45383;-80
2021/10/12 01:36:55;;;;;;;;;6.25;4.00;;;;;17.94;100.00;102220.81;5038516;28;46418;-80
2021/10/12 01:39:21;;;;;;;;;7.50;5.00;;;;;17.87;100.00;102214.22;5028889;28;45501;-81
2021/10/12 01:41:47;;;;;;;;;7.75;6.00;;;;;17.78;100.00;102198.88;5036378;28;45187;-81
2021/10/12 01:44:14;;;;;;;;;8.25;6.25;;;;;17.79;100.00;102201.44;5029369;28;45529;-81
2021/10/12 01:46:40;;;;;;;;;4.00;4.00;;;;;17.75;100.00;102196.44;5026385;28;45467;-81
2021/10/12 01:49:06;;;;;;;;;7.50;4.75;;;;;17.76;100.00;102195.47;5020288;28;45415;-81
2021/10/12 01:51:32;;;;;;;;;6.25;4.25;;;;;17.69;100.00;102205.75;5031225;28;45412;-81
2021/10/12 01:53:59;;;;;;;;;5.75;5.50;;;;;17.71;100.00;102193.13;5033765;28;45453;-80
2021/10/12 01:56:24;;;;;;;;;7.00;6.00;;;;;17.70;100.00;102199.44;5030689;28;46346;-81
2021/10/12 01:58:50;;;;;;;;;5.00;4.00;;;;;17.59;100.00;102210.88;5032023;27;45559;-81
2021/10/12 02:01:25;;;;;;;;;10.50;5.00;;;;;17.62;100.00;102215.19;5027803;28;45554;-80
2021/10/12 02:03:51;;;;;;;;;6.25;5.00;;;;;17.59;100.00;102196.69;5034863;28;45382;-81
2021/10/12 02:06:17;;;;;;;;;6.50;6.50;;;;;17.58;100.00;102205.66;5028990;28;45449;-80
2021/10/12 02:08:43;;;;;;;;;7.25;4.00;;;;;17.55;100.00;102208.56;5036191;28;45381;-80
2021/10/12 02:11:08;;;;;;;;;4.75;4.50;;;;;17.67;100.00;102210.34;5029542;28;45460;-80
2021/10/12 02:13:34;;;;;;;;;5.00;5.00;;;;;17.70;100.00;102210.13;5031480;28;45417;-80
2021/10/12 02:15:59;;;;;;;;;7.00;5.00;;;;;17.66;100.00;102205.16;5030249;28;45318;-81
2021/10/12 02:18:25;;;;;;;;;6.00;5.00;;;;;17.56;100.00;102203.13;5036393;28;44955;-80
2021/10/12 02:20:50;;;;;;;;;9.25;4.25;;;;;17.51;100.00;102193.72;5068408;27;45684;-80
2021/10/12 02:23:16;;;;;;;;;10.00;5.75;;;;;17.49;100.00;102199.16;5038491;28;45223;-80
2021/10/12 02:25:42;;;;;;;;;7.75;6.00;;;;;17.47;100.00;102192.25;5038370;28;45489;-79
2021/10/12 02:28:07;;;;;;;;;7.75;5.25;;;;;17.33;100.00;102171.03;5031093;28;45446;-79
2021/10/12 02:30:33;;;;;;;;;10.75;5.00;;;;;17.31;100.00;102159.63;5038039;28;45399;-79
2021/10/12 02:32:59;;;;;;;;;8.00;5.25;;;;;17.29;100.00;102177.59;5037959;28;45502;-80
2021/10/12 02:35:24;;;;;;;;;5.75;4.75;;;;;17.24;100.00;102177.06;5037729;28;45465;-80
2021/10/12 02:37:50;;;;;;;;;4.75;4.00;;;;;17.27;100.00;102188.38;5029329;28;45399;-79
2021/10/12 02:40:15;;;;;;;;;6.50;4.00;;;;;17.30;100.00;102192.66;5021789;28;45496;-79
2021/10/12 02:42:41;;;;;;;;;4.75;4.00;;;;;17.26;100.00;102197.34;5037751;28;45344;-79
2021/10/12 02:45:06;;;;;;;;;6.75;4.25;;;;;17.27;100.00;102183.03;5020396;28;45352;-79
2021/10/12 02:47:34;;;;;;;;;11.25;5.50;;;;;17.29;100.00;102188.25;5028857;28;45317;-80
2021/10/12 02:50:00;;;;;;;;;8.25;5.25;;;;;17.24;100.00;102172.56;5034439;28;45317;-79
2021/10/12 02:52:25;;;;;;;;;7.00;5.00;;;;;17.29;100.00;102166.91;5037111;28;45243;-80
2021/10/12 02:54:50;;;;;;;;;6.00;4.00;;;;;17.27;100.00;102172.34;5027542;27;46331;-80
2021/10/12 02:57:16;;;;;;;;;7.75;5.50;;;;;17.26;100.00;102165.31;5037046;28;45249;-79
2021/10/12 02:59:41;;;;;;;;;10.75;4.50;;;;;17.27;100.00;102176.84;5034852;28;45419;-80
2021/10/12 03:02:06;;;;;;;;;5.00;4.00;;;;;17.23;100.00;102180.69;5033712;28;45914;-80
2021/10/12 03:04:32;;;;;;;;;6.00;4.00;;;;;17.14;100.00;102161.69;5027589;27;48099;-80
2021/10/12 03:06:57;;;;;;;;;5.25;4.75;;;;;17.12;100.00;102166.28;5036952;28;45441;-81
2021/10/12 03:09:22;;;;;;;;;8.25;5.00;;;;;17.07;100.00;102170.28;5033450;28;45628;-81
2021/10/12 03:11:48;;;;;;;;;4.00;2.00;;;;;16.99;100.00;102170.81;5036869;28;45577;-81
2021/10/12 03:14:13;;;;;;;;;7.75;5.00;;;;;16.90;100.00;102178.63;5026704;28;45358;-78
2021/10/12 03:16:39;;;;;;;;;7.75;5.00;;;;;16.76;100.00;102183.13;5026636;28;45528;-79
2021/10/12 03:19:04;;;;;;;;;7.75;4.75;;;;;16.70;100.00;102183.56;5032342;28;45377;-80
2021/10/12 03:21:34;;;;;;;;;5.50;4.00;;;;;16.62;100.00;102169.06;5023544;28;45293;-80
2021/10/12 03:24:00;;;;;;;;;4.25;4.00;;;;;16.62;100.00;102169.91;5049442;28;46186;-80
2021/10/12 03:26:25;;;;;;;;;7.50;3.25;;;;;16.63;100.00;102160.97;5033211;28;45652;-80
2021/10/12 03:28:51;;;;;;;;;5.50;5.00;;;;;16.60;100.00;102152.28;5031081;28;45585;-80
2021/10/12 03:31:16;;;;;;;;;4.00;4.00;;;;;16.61;100.00;102140.66;5022492;28;44762;-79
2021/10/12 03:33:41;;;;;;;;;5.00;4.00;;;;;16.64;100.00;102156.47;5039213;28;45349;-81
2021/10/12 03:36:16;;;;;;;;;6.75;4.00;;;;;16.64;100.00;102143.16;5033180;28;45328;-80
2021/10/12 03:38:42;;;;;;;;;7.00;4.50;;;;;16.71;100.00;102147.94;5041067;28;45140;-80
2021/10/12 03:41:07;;;;;;;;;6.50;5.00;;;;;16.65;100.00;102153.72;5036923;28;45335;-80
2021/10/12 03:43:33;;;;;;;;;5.50;5.50;;;;;16.64;100.00;102154.66;5044425;28;45448;-80
2021/10/12 03:45:58;;;;;;;;;8.00;4.00;;;;;16.66;100.00;102149.22;5052107;28;44716;-79
2021/10/12 03:48:24;;;;;;;;;3.75;3.75;;;;;16.69;100.00;102151.66;5053599;28;45299;-80
2021/10/12 03:50:49;;;;;;;;;4.00;4.00;;;;;16.73;100.00;102151.34;5022192;28;47490;-81
2021/10/12 03:53:14;;;;;;;;;6.25;4.00;;;;;16.68;100.00;102164.13;5024308;28;45460;-81
2021/10/12 03:55:40;;;;;;;;;5.75;3.25;;;;;16.61;100.00;102151.31;5033710;28;45370;-80
2021/10/12 03:58:05;;;;;;;;;5.75;3.00;;;;;16.58;100.00;102151.53;5036273;28;45320;-80
2021/10/12 04:00:31;;;;;;;;;4.75;3.50;;;;;16.67;100.00;102143.75;5032193;28;45406;-80
2021/10/12 04:02:56;;;;;;;;;7.00;4.00;;;;;16.71;100.00;102147.94;5036934;28;46217;-81
2021/10/12 04:05:22;;;;;;;;;5.50;4.25;;;;;16.69;100.00;102143.66;5030469;28;45262;-81
2021/10/12 04:07:48;;;;;;;;;6.50;4.00;;;;;16.76;100.00;102137.78;5037067;28;45333;-81
2021/10/12 04:10:14;;;;;;;;;5.00;4.00;;;;;16.77;100.00;102141.28;5031796;28;45249;-80
2021/10/12 04:12:40;;;;;;;;;3.50;3.50;;;;;16.73;100.00;102138.00;5043198;28;46995;-80
2021/10/12 04:15:06;;;;;;;;;6.00;4.25;;;;;16.71;100.00;102139.06;5022412;28;45404;-80
2021/10/12 04:17:31;;;;;;;;;5.75;4.75;;;;;16.62;100.00;102137.91;5036675;28;45282;-80
2021/10/12 04:19:57;;;;;;;;;5.50;5.00;;;;;16.58;100.00;102127.53;5023800;28;45463;-80
2021/10/12 04:22:22;;;;;;;;;8.50;4.50;;;;;16.57;100.00;102139.19;5028391;28;46210;-80
2021/10/12 04:24:49;;;;;;;;;6.25;5.00;;;;;16.57;100.00;102134.66;5035312;28;45373;-81
2021/10/12 04:27:14;;;;;;;;;7.25;5.00;;;;;16.59;100.00;102143.41;5025597;28;45344;-81
2021/10/12 04:29:40;;;;;;;;;7.25;5.50;;;;;16.63;100.00;102141.44;5017170;28;47143;-81
2021/10/12 04:32:09;;;;;;;;;5.50;4.00;;;;;16.58;100.00;102154.19;5022174;28;45445;-80
2021/10/12 04:34:34;;;;;;;;;5.00;4.00;;;;;16.56;100.00;102158.81;5016869;28;45312;-81
2021/10/12 04:37:00;;;;;;;;;5.25;4.50;;;;;16.45;100.00;102147.06;5034540;28;45628;-80
2021/10/12 04:39:25;;;;;;;;;6.00;5.00;;;;;16.42;100.00;102139.28;5037066;28;45780;-80
2021/10/12 04:41:51;;;;;;;;;7.00;5.25;;;;;16.48;100.00;102148.66;5031593;28;45438;-80
2021/10/12 04:44:17;;;;;;;;;5.25;4.00;;;;;16.44;100.00;102140.03;5032545;28;45341;-81
2021/10/12 04:46:42;;;;;;;;;5.25;4.75;;;;;16.42;100.00;102143.75;5028525;28;45423;-80
2021/10/12 04:49:08;;;;;;;;;11.00;5.25;;;;;16.40;100.00;102141.19;5029383;28;45549;-80
2021/10/12 04:51:34;;;;;;;;;4.75;3.00;;;;;16.45;100.00;102141.75;5035066;28;45866;-80
2021/10/12 04:54:00;;;;;;;;;11.00;6.50;;;;;16.42;100.00;102143.75;5038816;28;45446;-80
2021/10/12 04:56:25;;;;;;;;;4.00;4.00;;;;;16.45;100.00;102147.06;5040876;28;45455;-81
2021/10/12 04:58:50;;;;;;;;;6.75;3.00;;;;;16.46;100.00;102150.59;5036641;28;45341;-80
2021/10/12 05:01:16;;;;;;;;;6.75;5.50;;;;;16.50;100.00;102151.22;5032135;28;47479;-80
2021/10/12 05:03:41;;;;;;;;;8.50;4.50;;;;;16.37;100.00;102149.41;5036097;28;45556;-79
2021/10/12 05:06:07;;;;;;;;;6.75;4.75;;;;;16.44;100.00;102145.34;5036938;28;45250;-80
2021/10/12 05:08:32;;;;;;;;;5.00;5.00;;;;;16.54;100.00;102147.38;5035628;28;45475;-80
2021/10/12 05:10:57;;;;;;;;;7.75;5.00;;;;;16.57;100.00;102144.50;5032190;28;46525;-80
2021/10/12 05:13:23;;;;;;;;;5.25;4.00;;;;;16.57;100.00;102148.00;5037800;28;45466;-79
2021/10/12 05:15:49;;;;;;;;;6.00;4.00;;;;;16.61;100.00;102140.66;5034925;28;45382;-80
2021/10/12 05:18:21;;;;;;;;;6.50;5.00;;;;;16.60;100.00;102139.78;5025076;28;45402;-80
2021/10/12 05:20:46;;;;;;;;;7.00;5.00;;;;;16.69;100.00;102135.66;5028141;28;47290;-80
2021/10/12 05:23:13;;;;;;;;;4.50;4.50;;;;;16.64;100.00;102132.47;5031005;28;45275;-79
2021/10/12 05:25:39;;;;;;;;;7.00;4.25;;;;;16.55;100.00;102117.94;5031817;28;45314;-80
2021/10/12 05:28:04;;;;;;;;;7.00;6.00;;;;;16.63;100.00;102130.75;5034731;28;45619;-80
2021/10/12 05:30:30;;;;;;;;;9.50;4.50;;;;;16.69;100.00;102133.00;5023442;28;48401;-79
2021/10/12 05:32:55;;;;;;;;;6.75;5.25;;;;;16.64;100.00;102129.81;5025073;28;45318;-78
2021/10/12 05:35:20;;;;;;;;;9.25;5.25;;;;;16.66;100.00;102117.22;5032630;28;45932;-79
2021/10/12 05:37:46;;;;;;;;;5.25;4.75;;;;;16.69;100.00;102115.16;5048728;28;45381;-80
2021/10/12 05:40:12;;;;;;;;;7.75;5.50;;;;;16.71;100.00;102129.25;5037709;28;45753;-82
2021/10/12 05:42:37;;;;;;;;;8.75;6.00;;;;;16.67;100.00;102132.22;5037466;28;45463;-82
2021/10/12 05:45:03;;;;;;;;;6.25;5.50;;;;;16.64;100.00;102121.81;5032504;28;45707;-81
2021/10/12 05:47:28;;;;;;;;;6.75;5.25;;;;;16.68;100.00;102126.78;5029517;28;45961;-83
2021/10/12 05:49:53;;;;;;;;;12.00;5.25;;;;;16.61;100.00;102117.53;5031848;28;47316;-81
2021/10/12 05:52:21;;;;;;;;;8.75;5.75;;;;;16.61;100.00;102138.88;5027039;28;45413;-83
2021/10/12 05:54:51;;;;;;;;;7.50;5.50;;;;;16.58;100.00;102127.53;5022200;28;45753;-82
2021/10/12 05:58:27;;;;;;;;;9.00;6.00;;;;;16.53;100.00;102133.19;5029225;28;45519;-81
2021/10/12 06:00:11;;;;;;;;;7.00;7.00;;;;;16.45;100.00;102132.88;5027301;28;45410;-84
2021/10/12 06:02:36;;;;;;;;;9.50;5.50;;;;;16.39;100.00;102139.47;5029595;28;45291;-84
2021/10/12 06:05:02;;;;;;;;;12.25;6.25;;;;;16.38;100.00;102129.81;5037663;28;45517;-85
2021/10/12 06:07:27;;;;;;;;;4.75;4.00;;;;;16.46;100.00;102130.13;5038550;28;45661;-85
2021/10/12 06:09:53;;;;;;;;;6.75;6.00;;;;;16.61;100.00;102124.66;5053480;28;46926;-84
2021/10/12 06:12:18;;;;;;;;;6.50;6.00;;;;;16.58;100.00;102119.53;5038553;28;45458;-84
2021/10/12 06:14:44;;;;;;;;;11.75;7.00;;;;;16.56;100.00;102122.31;5043376;28;45439;-85
2021/10/12 06:17:09;;;;;;;;;12.25;9.25;;;;;16.48;100.00;102119.31;5040042;28;45440;-84
2021/10/12 06:19:35;;;;;;;;;13.00;5.25;;;;;16.54;100.00;102129.56;5031108;28;46303;-84
2021/10/12 06:22:00;;;;;;;;;6.00;4.50;;;;;16.51;100.00;102123.59;5033695;28;45460;-84
2021/10/12 06:24:25;;;;;;;;;8.00;6.75;;;;;16.48;100.00;102120.16;5029321;28;45421;-83
2021/10/12 06:26:51;;;;;;;;;6.00;5.00;;;;;16.48;100.00;102130.84;5041609;28;45627;-84
2021/10/12 06:29:16;;;;;;;;;9.25;6.50;;;;;16.49;100.00;102129.03;5030419;28;45609;-84
2021/10/12 06:31:41;;;;;;;;;10.00;6.50;;;;;16.46;100.00;102132.78;5036951;28;46368;-85
2021/10/12 06:34:07;;;;;;;;;12.75;10.00;;;;;16.43;100.00;102130.31;5037355;28;45268;-84
2021/10/12 06:36:32;;;;;;;;;10.25;5.75;;;;;16.48;100.00;102131.81;5026903;28;45593;-82
2021/10/12 06:38:58;;;;;;;;;10.25;8.75;;;;;16.42;100.00;102123.28;5029766;28;45344;-84
2021/10/12 06:41:23;;;;;;;;;6.50;4.75;;;;;16.41;100.00;102132.22;5038479;28;45703;-83
2021/10/12 06:43:48;;;;;;;;;12.00;8.75;;;;;16.45;100.00;102132.88;5038076;28;45354;-83
2021/10/12 06:46:14;;;;;;;;;5.75;5.75;;;;;16.46;100.00;102126.59;5035447;28;45498;-83
2021/10/12 06:48:39;;;;;;;;;10.00;6.00;;;;;16.45;100.00;102133.75;5026124;28;46951;-83
2021/10/12 06:51:05;;;;;;;;;9.50;8.50;;;;;16.45;100.00;102132.88;5027600;28;45869;-83
2021/10/12 06:53:30;;;;;;;;;13.25;7.00;;;;;16.51;100.00;102137.78;5040988;28;45342;-82
2021/10/12 06:55:56;;;;;;;;;13.50;8.00;;;;;16.53;100.00;102143.84;5040581;28;45307;-83
2021/10/12 06:58:21;;;;;;;;;12.50;7.50;;;;;16.59;100.00;102143.41;5029381;28;45293;-83
2021/10/12 07:00:46;;;;;;;;;9.50;9.50;;;;;16.64;100.00;102140.47;5037332;28;45459;-83
2021/10/12 07:03:12;;;;;;;;;9.75;7.00;;;;;16.61;100.00;102128.19;5038468;28;45474;-85
2021/10/12 07:05:37;;;;;;;;;12.25;10.00;;;;;16.59;100.00;102129.22;5035720;28;45720;-84
2021/10/12 07:08:03;;;;;;;;;10.75;7.00;;;;;16.62;100.00;102126.38;5030614;28;45968;-84
2021/10/12 07:10:28;;;;;;;;;13.25;9.50;;;;;16.64;100.00;102130.66;5038009;28;45465;-84
2021/10/12 07:12:53;;;;;;;;;10.50;8.25;;;;;16.62;100.00;102123.72;5038437;28;45349;-85
2021/10/12 07:15:19;;;;;;;;;7.25;7.25;;;;;16.64;100.00;102116.47;5038347;28;45389;-84
2021/10/12 07:17:44;;;;;;;;;10.25;9.25;;;;;16.69;100.00;102116.97;5033295;28;46442;-84
2021/10/12 07:20:10;;;;;;;;;8.25;7.75;;;;;16.83;100.00;102112.38;5038523;27;45792;-84
2021/10/12 07:22:36;;;;;;;;;14.50;10.00;;;;;16.90;100.00;102110.13;5033733;28;45333;-84
2021/10/12 07:25:04;;;;;;;;;12.75;9.00;;;;;16.96;100.00;102112.31;5032115;28;45404;-85
2021/10/12 07:27:30;;;;;;;;;14.50;10.00;;;;;16.98;100.00;102113.06;5036210;28;47208;-85
2021/10/12 07:29:55;;;;;;;;;12.50;8.25;;;;;17.11;100.00;102102.38;5031269;28;44876;-85
2021/10/12 07:32:21;;;;;;;;;12.75;10.75;;;;;17.67;100.00;102099.97;5036952;28;45316;-84
2021/10/12 07:34:47;;;;;;;;;15.00;7.50;;;;;18.77;100.00;102093.06;5038695;28;45337;-83
2021/10/12 07:37:12;;;;;;;;;12.25;9.25;;;;;19.84;100.00;102090.44;5039893;28;46397;-83
2021/10/12 07:39:41;;;;;;;;;10.00;9.00;;;;;20.94;100.00;102086.16;5027156;28;46066;-83
2021/10/12 07:42:08;;;;;;;;;11.50;10.00;;;;;21.89;100.00;102084.50;5046867;28;45434;-83
2021/10/12 07:44:34;;;;;;;;;13.00;8.25;;;;;22.66;100.00;102089.66;5049475;28;45248;-84
2021/10/12 07:47:00;;;;;;;;;9.25;9.25;;;;;23.00;100.00;102077.28;5035593;28;45431;-84
2021/10/12 07:49:25;;;;;;;;;14.50;9.50;;;;;23.30;100.00;102088.72;5024322;28;45309;-83
2021/10/12 07:51:52;;;;;;;;;11.00;9.25;;;;;23.84;100.00;102082.28;5041865;27;45360;-84
2021/10/12 07:54:25;;;;;;;;;15.25;10.25;;;;;24.49;98.13;102083.53;5035762;28;45412;-84
2021/10/12 07:56:50;;;;;;;;;11.00;9.00;;;;;25.11;97.48;102083.28;5039168;28;45418;-83
2021/10/12 07:59:18;;;;;;;;;15.50;9.25;;;;;25.73;87.32;102078.28;5039238;28;45335;-84
2021/10/12 08:01:44;;;;;;;;;9.50;7.50;;;;;26.32;78.95;102077.00;5041792;28;45438;-84
2021/10/12 08:04:10;;;;;;;;;11.75;10.75;;;;;26.92;83.63;102074.59;5054877;28;45628;-84
2021/10/12 08:06:37;;;;;;;;;10.25;9.25;;;;;27.30;80.85;102069.25;5046279;28;45293;-84
2021/10/12 08:09:02;;;;;;;;;10.50;8.25;;;;;27.67;71.17;102071.19;5039270;28;45360;-84
2021/10/12 08:11:28;;;;;;;;;10.75;8.25;;;;;28.06;76.69;102065.50;5041172;28;45241;-84
2021/10/12 08:14:02;;;;;;;;;12.25;7.50;;;;;28.56;75.32;102068.38;5046547;28;45442;-84
2021/10/12 08:16:32;;;;;;;;;10.25;9.00;;;;;28.91;64.74;102055.00;5057844;28;47281;-84
2021/10/12 08:19:02;;;;;;;;;12.50;10.50;;;;;29.15;63.57;102051.06;5032882;28;45466;-85
2021/10/12 08:21:29;;;;;;;;;9.75;9.75;;;;;29.07;65.72;102059.34;5032055;28;45172;-86
2021/10/12 08:23:59;;;;;;;;;9.50;7.50;;;;;29.46;62.85;102065.22;5025359;28;45227;-83
2021/10/12 08:26:25;;;;;;;;;9.25;8.00;;;;;29.72;63.19;102067.31;5054988;28;48163;-83
2021/10/12 08:28:51;;;;;;;;;16.00;9.75;;;;;30.01;58.54;102064.44;5041126;28;45498;-84
2021/10/12 08:31:17;;;;;;;;;12.75;9.75;;;;;30.24;58.13;102066.88;5034778;28;45489;-83
2021/10/12 08:33:43;;;;;;;;;12.00;11.50;;;;;30.33;59.58;102060.19;5044377;28;46054;-84
2021/10/12 08:36:10;;;;;;;;;12.25;11.50;;;;;30.19;54.00;102061.19;5032424;28;46254;-83
2021/10/12 08:38:36;;;;;;;;;12.00;10.25;;;;;30.09;55.00;102050.66;5035172;28;45481;-84
2021/10/12 08:41:07;;;;;;;;;11.75;11.00;;;;;30.45;55.40;102055.03;5039966;28;45286;-84
2021/10/12 08:43:38;;;;;;;;;10.75;9.00;;;;;30.68;51.79;102052.03;5034567;28;45254;-84
2021/10/12 08:46:04;;;;;;;;;11.75;10.00;;;;;30.19;52.38;102046.72;5033656;28;46505;-85
2021/10/12 08:48:32;;;;;;;;;12.50;9.75;;;;;30.51;54.71;102026.94;5052317;28;45466;-84
2021/10/12 08:51:02;;;;;;;;;14.25;11.25;;;;;30.90;57.24;102034.44;5037413;27;45312;-84
2021/10/12 08:53:29;;;;;;;;;13.00;11.25;;;;;31.55;51.79;102046.53;5036860;28;45555;-84
2021/10/12 08:55:56;;;;;;;;;11.75;10.25;;;;;31.89;51.35;102038.09;5038506;28;47198;-85
2021/10/12 08:58:21;;;;;;;;;14.50;11.25;;;;;31.69;49.00;102031.81;5055475;28;45286;-85
2021/10/12 09:00:46;;;;;;;;;11.25;10.75;;;;;31.86;49.32;102024.06;5036664;28;45487;-84
2021/10/12 09:05:53;;;;;;;;;13.50;9.00;;;;;30.84;48.53;102030.66;5034315;28;45349;-85
2021/10/12 09:08:26;;;;;;;;;15.25;11.75;;;;;30.21;48.38;102028.28;5036630;28;45430;-85
2021/10/12 09:10:51;;;;;;;;;10.75;10.25;;;;;30.03;50.71;102028.81;5037276;28;45321;-85
2021/10/12 09:13:17;;;;;;;;;12.50;12.25;;;;;29.46;50.88;102026.28;5036822;28;45214;-85
2021/10/12 09:16:02;;;;;;;;;14.50;12.25;;;;;29.25;52.67;102024.38;5031227;28;45901;-85
2021/10/12 09:18:50;;;;;;;;;11.50;10.75;;;;;28.54;54.53;102023.38;5033249;28;45324;-86
2021/10/12 09:21:20;;;;;;;;;12.25;10.00;;;;;28.34;55.56;102014.97;5036875;28;45466;-85
2021/10/12 09:23:47;;;;;;;;;17.75;11.00;;;;;29.13;55.06;102004.19;5037447;28;45549;-84
2021/10/12 09:26:27;;;;;;;;;14.75;12.50;;;;;29.32;53.98;102014.38;5030559;28;45972;-84
2021/10/12 09:29:12;;;;;;;;;12.50;10.25;;;;;29.09;53.99;102014.59;5039777;28;45312;-84
2021/10/12 09:31:41;;;;;;;;;12.50;9.00;;;;;28.97;56.42;102016.97;5034663;28;45341;-84
2021/10/12 09:34:08;;;;;;;;;12.75;10.50;;;;;29.04;53.18;102012.44;5030952;28;45511;-84
2021/10/12 09:36:45;;;;;;;;;17.00;11.50;;;;;28.92;55.79;102007.75;5042007;28;45349;-84
2021/10/12 09:39:14;;;;;;;;;13.75;10.50;;;;;28.94;57.08;101998.34;5040907;28;45542;-84
2021/10/12 09:41:42;;;;;;;;;17.00;15.00;;;;;28.83;55.35;101998.00;5034890;28;45306;-84
2021/10/12 09:44:12;;;;;;;;;12.00;10.25;;;;;28.63;56.37;102008.63;5032782;28;45506;-84
2021/10/12 09:46:40;;;;;;;;;11.50;11.25;;;;;28.23;55.69;102010.84;5027871;28;45308;-84
2021/10/12 09:49:23;;;;;;;;;15.00;13.75;;;;;27.86;57.48;102009.03;5040604;28;45405;-84
2021/10/12 09:51:48;;;;;;;;;22.75;13.75;;;;;27.62;58.57;102013.88;5048859;27;45473;-84
2021/10/12 09:54:21;;;;;;;;;13.50;12.75;;;;;27.36;59.41;102012.41;5038919;28;45303;-84
2021/10/12 09:56:48;;;;;;;;;16.75;11.50;;;;;27.18;61.41;102015.41;5038868;28;46144;-84
2021/10/12 09:59:14;;;;;;;;;16.75;11.00;;;;;26.94;61.83;102006.63;5038941;28;45538;-84
2021/10/12 10:01:42;;;;;;;;;14.00;11.25;;;;;26.79;62.54;102007.34;5047027;28;45237;-84
2021/10/12 10:04:10;;;;;;;;;13.25;10.50;;;;;26.59;63.56;102002.56;5038911;28;45430;-83
2021/10/12 10:06:38;;;;;;;;;15.50;12.00;;;;;26.70;63.86;102011.13;5038817;28;45414;-84
2021/10/12 10:09:03;;;;;;;;;14.75;14.50;;;;;26.71;64.12;102001.13;5037909;28;45254;-84
2021/10/12 10:11:29;;;;;;;;;16.25;12.00;;;;;26.69;64.10;101995.91;5038926;28;45479;-84
2021/10/12 10:13:56;;;;;;;;;15.75;13.25;;;;;26.61;64.69;102004.06;5038713;28;45479;-84
2021/10/12 10:16:22;;;;;;;;;11.50;10.75;;;;;26.60;65.20;101994.25;5041435;28;45634;-83
2021/10/12 10:18:48;;;;;;;;;16.25;14.00;;;;;26.52;65.99;101990.75;5053075;28;45490;-83
2021/10/12 10:21:13;;;;;;;;;16.75;12.25;;;;;26.59;66.17;101991.72;5033903;28;45480;-83
2021/10/12 10:24:42;;;;;;;;;16.00;12.75;;;;;26.80;65.68;101989.22;5037575;28;45407;-83
2021/10/12 10:26:50;;;;;;;;;13.00;11.25;;;;;26.90;65.05;101986.28;5035539;28;46151;-84
2021/10/12 10:29:24;;;;;;;;;15.25;12.50;;;;;26.99;65.84;101990.66;5030420;28;45231;-83
2021/10/12 10:32:16;;;;;;;;;15.25;11.25;;;;;26.97;65.67;101988.13;5020887;28;45389;-83
2021/10/12 10:34:47;;;;;;;;;16.00;13.75;;;;;26.89;65.57;101984.59;5034697;28;45330;-84
2021/10/12 10:37:15;;;;;;;;;15.00;13.75;;;;;26.89;65.80;101979.16;5038168;28;45483;-83
2021/10/12 10:40:06;;;;;;;;;15.75;13.00;;;;;26.80;66.22;101976.53;5037904;28;45399;-83
2021/10/12 10:42:50;;;;;;;;;17.50;14.50;;;;;26.61;66.16;101957.16;5035568;28;45612;-83
2021/10/12 10:45:15;;;;;;;;;16.00;12.00;;;;;26.66;66.91;101957.50;5037154;28;46035;-83
2021/10/12 10:47:40;;;;;;;;;18.50;14.75;;;;;26.66;67.61;101963.75;5036722;28;47089;-83
2021/10/12 10:50:14;;;;;;;;;20.00;14.50;;;;;26.71;67.32;101961.34;5033897;28;45277;-83
2021/10/12 10:52:51;;;;;;;;;16.50;9.50;;;;;26.65;67.05;101953.94;5038328;27;45312;-83
2021/10/12 10:55:24;;;;;;;;;17.75;11.00;;;;;26.59;67.14;101954.63;5051935;28;45999;-84
2021/10/12 10:58:12;;;;;;;;;12.25;10.00;;;;;26.52;67.57;101958.25;5026395;27;46280;-83
2021/10/12 11:00:54;;;;;;;;;18.00;14.50;;;;;26.66;68.48;101963.75;5040379;28;45426;-83
2021/10/12 11:03:25;;;;;;;;;18.75;12.00;;;;;26.91;67.05;101964.44;5055170;28;45614;-83
2021/10/12 11:05:52;;;;;;;;;14.75;12.25;;;;;26.88;67.64;101955.78;5038308;28;45318;-83
2021/10/12 11:08:22;;;;;;;;;13.25;11.00;;;;;26.63;67.01;101950.56;5037903;28;45342;-83
2021/10/12 11:10:54;;;;;;;;;14.50;12.00;;;;;26.50;68.31;101946.72;5038519;28;45483;-83
2021/10/12 11:13:30;;;;;;;;;12.50;12.50;;;;;26.58;67.63;101947.56;5036442;28;45466;-83
2021/10/12 11:15:56;;;;;;;;;11.50;9.75;;;;;26.46;65.75;101943.56;5037683;28;45266;-83
2021/10/12 11:18:21;;;;;;;;;13.75;10.75;;;;;26.74;66.54;101950.16;5037980;28;45450;-83